Time;durP1;ratioP1;P1;durP2;ratioP2;P2;SDS_P1;SDS_P2;PMS_P1;PMS_P2;Temp;Humidity;BMP_temperature;BMP_pressure;BME280_temperature;BME280_humidity;BME280_pressure;Samples;Min_cycle;Max_cycle;Signal;HPM_P1;HPM_P2
2023/05/31 00:01:47;;;;;;;0.60;0.40;;;15.90;99.90;;;;;;5053167;28;20706;-71
2023/05/31 00:04:15;;;;;;;0.60;0.45;;;15.90;99.90;;;;;;5053180;28;20196;-68
2023/05/31 00:06:44;;;;;;;1.10;0.55;;;15.90;99.90;;;;;;5052906;28;20207;-69
2023/05/31 00:09:12;;;;;;;0.70;0.50;;;15.90;99.90;;;;;;5056784;28;20227;-69
2023/05/31 00:11:40;;;;;;;0.50;0.40;;;15.90;99.90;;;;;;5063053;28;20204;-69
2023/05/31 00:14:08;;;;;;;0.70;0.50;;;15.90;99.90;;;;;;5053219;28;20299;-69
2023/05/31 00:16:36;;;;;;;1.05;0.50;;;15.90;99.90;;;;;;5053780;28;20204;-69
2023/05/31 00:19:07;;;;;;;0.60;0.40;;;15.90;99.90;;;;;;5072842;28;20230;-70
2023/05/31 00:21:35;;;;;;;0.70;0.50;;;15.90;99.90;;;;;;5064328;28;20253;-70
2023/05/31 00:24:05;;;;;;;0.70;0.50;;;15.80;99.90;;;;;;5068254;28;20207;-69
2023/05/31 00:26:33;;;;;;;0.60;0.60;;;15.80;99.90;;;;;;5051681;28;20218;-69
2023/05/31 00:29:01;;;;;;;0.60;0.45;;;15.80;99.90;;;;;;5052976;28;20232;-69
2023/05/31 00:31:29;;;;;;;0.60;0.40;;;15.90;99.90;;;;;;5052691;28;20219;-69
2023/05/31 00:33:58;;;;;;;0.60;0.57;;;15.90;99.90;;;;;;5051339;28;20219;-69
2023/05/31 00:36:26;;;;;;;1.10;0.70;;;15.90;99.90;;;;;;5061032;28;20207;-69
2023/05/31 00:38:54;;;;;;;1.83;0.95;;;15.80;99.90;;;;;;5044625;28;20223;-69
2023/05/31 00:41:23;;;;;;;0.80;0.60;;;15.80;99.90;;;;;;5052652;28;20615;-69
2023/05/31 00:43:51;;;;;;;0.60;0.50;;;15.80;99.90;;;;;;5052275;28;20735;-71
2023/05/31 00:46:26;;;;;;;0.80;0.50;;;15.80;99.90;;;;;;5052177;28;20208;-71
2023/05/31 00:48:56;;;;;;;0.60;0.40;;;15.80;99.90;;;;;;5061010;28;20223;-71
2023/05/31 00:51:26;;;;;;;1.40;0.55;;;15.80;99.90;;;;;;5060777;28;20200;-72
2023/05/31 00:53:54;;;;;;;0.60;0.40;;;15.70;99.90;;;;;;5055382;28;20306;-69
2023/05/31 00:56:23;;;;;;;0.63;0.52;;;15.80;99.90;;;;;;5056994;28;20253;-70
2023/05/31 00:58:52;;;;;;;1.10;0.65;;;15.70;99.90;;;;;;5052076;28;20223;-70
2023/05/31 01:01:21;;;;;;;0.60;0.40;;;15.80;99.90;;;;;;5052224;28;20286;-70
2023/05/31 01:03:50;;;;;;;1.67;0.73;;;15.70;99.90;;;;;;5052033;28;20864;-70
2023/05/31 01:06:18;;;;;;;1.67;0.40;;;15.80;99.90;;;;;;5052131;28;20208;-70
2023/05/31 01:08:46;;;;;;;0.57;0.40;;;15.80;99.90;;;;;;5052004;28;20729;-69
2023/05/31 01:11:30;;;;;;;0.60;0.40;;;15.80;99.90;;;;;;5052170;28;20211;-69
2023/05/31 01:14:06;;;;;;;2.65;0.80;;;15.70;99.90;;;;;;5044145;28;20215;-69
2023/05/31 01:16:39;;;;;;;0.60;0.40;;;15.70;99.90;;;;;;5052096;28;20209;-70
2023/05/31 01:19:18;;;;;;;0.80;0.63;;;15.70;99.90;;;;;;5066498;28;20247;-70
2023/05/31 01:21:58;;;;;;;0.60;0.43;;;15.70;99.90;;;;;;5051736;28;20662;-70
2023/05/31 01:24:32;;;;;;;0.68;0.60;;;15.70;99.90;;;;;;5052085;28;20728;-70
2023/05/31 01:27:03;;;;;;;0.60;0.50;;;15.70;99.90;;;;;;5064530;28;20669;-68
2023/05/31 01:29:33;;;;;;;1.05;0.65;;;15.70;99.90;;;;;;5062501;28;20238;-69
2023/05/31 01:32:02;;;;;;;0.80;0.80;;;15.70;99.90;;;;;;5058962;28;20274;-71
2023/05/31 01:34:29;;;;;;;0.70;0.40;;;15.70;99.90;;;;;;5050008;28;20600;-71
2023/05/31 01:36:57;;;;;;;0.65;0.50;;;15.70;99.90;;;;;;5057478;28;20207;-71
2023/05/31 01:39:26;;;;;;;0.95;0.57;;;15.60;99.90;;;;;;5060121;28;20701;-70
2023/05/31 01:41:56;;;;;;;0.80;0.57;;;15.60;99.90;;;;;;5059891;28;20211;-71
2023/05/31 01:44:26;;;;;;;2.08;0.77;;;15.60;99.90;;;;;;5059050;28;20758;-70
2023/05/31 01:46:54;;;;;;;1.63;0.65;;;15.50;99.90;;;;;;5055877;28;20216;-69
2023/05/31 01:49:23;;;;;;;1.25;0.90;;;15.50;99.90;;;;;;5051050;28;20665;-70
2023/05/31 01:51:52;;;;;;;0.70;0.55;;;15.50;99.90;;;;;;5065526;28;20222;-70
2023/05/31 01:54:20;;;;;;;1.67;1.58;;;15.50;99.90;;;;;;5064184;28;20230;-70
2023/05/31 01:56:48;;;;;;;0.65;0.50;;;15.50;99.90;;;;;;5065095;28;20202;-69
2023/05/31 01:59:18;;;;;;;0.70;0.57;;;15.40;99.90;;;;;;5067298;28;20238;-69
2023/05/31 02:01:48;;;;;;;1.42;0.80;;;15.40;99.90;;;;;;5054495;28;20215;-68
2023/05/31 02:04:18;;;;;;;0.68;0.47;;;15.40;99.90;;;;;;5060090;28;20275;-71
2023/05/31 02:06:46;;;;;;;0.60;0.40;;;15.40;99.90;;;;;;5059748;28;20214;-71
2023/05/31 02:09:14;;;;;;;1.63;0.60;;;15.40;99.90;;;;;;5058737;28;20282;-71
2023/05/31 02:11:42;;;;;;;0.80;0.60;;;15.40;99.90;;;;;;5061523;28;20199;-71
2023/05/31 02:14:10;;;;;;;1.48;0.50;;;15.30;99.90;;;;;;5066216;28;21032;-70
2023/05/31 02:16:38;;;;;;;1.02;0.55;;;15.30;99.90;;;;;;5053846;28;20208;-73
2023/05/31 02:19:08;;;;;;;0.60;0.40;;;15.30;99.90;;;;;;5050678;28;20315;-71
2023/05/31 02:21:36;;;;;;;0.77;0.60;;;15.20;99.90;;;;;;5057421;28;20207;-71
2023/05/31 02:24:04;;;;;;;0.80;0.80;;;15.20;99.90;;;;;;5063980;28;20582;-70
2023/05/31 02:26:32;;;;;;;0.60;0.50;;;15.20;99.90;;;;;;5067197;28;20658;-71
2023/05/31 02:29:00;;;;;;;0.80;0.45;;;15.20;99.90;;;;;;5066701;28;20698;-71
2023/05/31 02:31:28;;;;;;;0.60;0.50;;;15.20;99.90;;;;;;5057638;28;20211;-72
2023/05/31 02:33:56;;;;;;;1.70;0.70;;;15.20;99.90;;;;;;5056237;28;20219;-70
2023/05/31 02:36:28;;;;;;;0.70;0.50;;;15.20;99.90;;;;;;5051344;28;20571;-70
2023/05/31 02:38:56;;;;;;;1.13;0.73;;;15.20;99.90;;;;;;5061601;28;20222;-70
2023/05/31 02:41:25;;;;;;;1.42;0.68;;;15.20;99.90;;;;;;5053956;28;20199;-70
2023/05/31 02:43:53;;;;;;;0.80;0.80;;;15.10;99.90;;;;;;5068185;28;20199;-69
2023/05/31 02:46:21;;;;;;;0.60;0.43;;;15.20;99.90;;;;;;5052415;28;20200;-69
2023/05/31 02:48:49;;;;;;;0.60;0.50;;;15.10;99.90;;;;;;5055690;28;20694;-70
2023/05/31 02:51:17;;;;;;;0.70;0.60;;;15.10;99.90;;;;;;5056058;28;20211;-69
2023/05/31 02:53:46;;;;;;;0.80;0.55;;;15.10;99.90;;;;;;5064522;28;20663;-69
2023/05/31 02:56:14;;;;;;;0.80;0.65;;;15.10;99.90;;;;;;5062447;28;20214;-69
2023/05/31 02:58:42;;;;;;;0.60;0.50;;;15.10;99.90;;;;;;5060288;28;20235;-69
2023/05/31 03:01:10;;;;;;;0.70;0.60;;;15.10;99.90;;;;;;5070696;28;20207;-69
2023/05/31 03:03:38;;;;;;;1.42;0.60;;;15.00;99.90;;;;;;5065052;28;20192;-68
2023/05/31 03:06:06;;;;;;;3.35;0.60;;;15.00;99.90;;;;;;5059544;28;20199;-68
2023/05/31 03:08:34;;;;;;;1.00;0.70;;;15.00;99.90;;;;;;5056585;28;20226;-68
2023/05/31 03:11:03;;;;;;;0.70;0.50;;;15.00;99.90;;;;;;5050275;28;20211;-68
2023/05/31 03:13:31;;;;;;;3.10;0.80;;;15.00;99.90;;;;;;5049232;28;20590;-69
2023/05/31 03:15:59;;;;;;;1.23;1.00;;;15.00;99.90;;;;;;5054042;28;20207;-69
2023/05/31 03:18:27;;;;;;;0.80;0.65;;;15.00;99.90;;;;;;5060295;28;20231;-70
2023/05/31 03:20:55;;;;;;;1.52;1.02;;;14.90;99.90;;;;;;5053493;28;20628;-69
2023/05/31 03:23:23;;;;;;;0.90;0.60;;;14.90;99.90;;;;;;5053830;28;20211;-71
2023/05/31 03:25:51;;;;;;;0.60;0.40;;;14.80;99.90;;;;;;5064819;28;20218;-70
2023/05/31 03:28:20;;;;;;;0.70;0.60;;;14.90;99.90;;;;;;5052649;28;20235;-70
2023/05/31 03:30:48;;;;;;;0.70;0.60;;;14.80;99.90;;;;;;5055517;28;20224;-70
2023/05/31 03:33:16;;;;;;;0.80;0.70;;;14.90;99.90;;;;;;5059041;28;20203;-70
2023/05/31 03:35:44;;;;;;;0.60;0.40;;;14.80;99.90;;;;;;5053012;28;20553;-70
2023/05/31 03:38:12;;;;;;;1.58;1.48;;;14.80;99.90;;;;;;5054976;28;20219;-70
2023/05/31 03:40:40;;;;;;;1.50;0.40;;;14.80;99.90;;;;;;5061010;28;20211;-70
2023/05/31 03:43:08;;;;;;;1.13;0.55;;;14.80;99.90;;;;;;5057017;28;20544;-70
2023/05/31 03:45:37;;;;;;;0.80;0.50;;;14.70;99.90;;;;;;5054115;28;20204;-70
2023/05/31 03:48:05;;;;;;;0.82;0.63;;;14.80;99.90;;;;;;5054151;28;20223;-70
2023/05/31 03:50:33;;;;;;;1.00;0.60;;;14.80;99.90;;;;;;5056113;28;20583;-70
2023/05/31 03:53:01;;;;;;;0.60;0.40;;;14.70;99.90;;;;;;5061427;28;20204;-70
2023/05/31 03:55:30;;;;;;;0.90;0.50;;;14.70;99.90;;;;;;5052959;28;20238;-70
2023/05/31 03:57:58;;;;;;;0.60;0.50;;;14.70;99.90;;;;;;5061112;28;20227;-70
2023/05/31 04:00:26;;;;;;;0.80;0.60;;;14.70;99.90;;;;;;5053679;28;20211;-70
2023/05/31 04:02:55;;;;;;;0.80;0.80;;;14.60;99.90;;;;;;5059417;28;20212;-70
2023/05/31 04:05:30;;;;;;;0.75;0.60;;;14.60;99.90;;;;;;5053317;28;20208;-71
2023/05/31 04:07:59;;;;;;;1.30;0.57;;;14.60;99.90;;;;;;5052049;28;20228;-71
2023/05/31 04:10:27;;;;;;;0.60;0.50;;;14.60;99.90;;;;;;5054236;28;20207;-71
2023/05/31 04:12:55;;;;;;;0.60;0.50;;;14.70;99.90;;;;;;5051814;28;20211;-70
2023/05/31 04:15:22;;;;;;;0.75;0.60;;;14.60;99.90;;;;;;5053523;28;20642;-70
2023/05/31 04:17:50;;;;;;;0.70;0.68;;;14.60;99.90;;;;;;5082552;22;20232;-62
2023/05/31 04:20:20;;;;;;;0.90;0.50;;;14.60;99.90;;;;;;5029192;28;20244;-61
2023/05/31 04:22:48;;;;;;;0.60;0.40;;;14.60;99.90;;;;;;5031228;28;20247;-61
2023/05/31 04:25:17;;;;;;;0.70;0.50;;;14.60;99.90;;;;;;5034141;28;20818;-62
2023/05/31 04:27:45;;;;;;;0.70;0.70;;;14.70;99.90;;;;;;5037394;28;20940;-62
2023/05/31 04:30:14;;;;;;;0.60;0.60;;;14.70;99.90;;;;;;5031637;28;20211;-61
2023/05/31 04:32:44;;;;;;;0.60;0.60;;;14.80;99.90;;;;;;5035844;28;20295;-61
2023/05/31 04:35:12;;;;;;;1.25;0.55;;;14.80;99.90;;;;;;5037713;28;20220;-61
2023/05/31 04:37:41;;;;;;;1.13;0.40;;;14.80;99.90;;;;;;5029705;28;20288;-61
2023/05/31 04:40:10;;;;;;;1.15;0.60;;;14.90;99.90;;;;;;5036160;28;20216;-61
2023/05/31 04:42:45;;;;;;;1.10;1.00;;;15.00;99.90;;;;;;5033510;28;20476;-61
2023/05/31 04:45:14;;;;;;;0.65;0.50;;;14.90;99.90;;;;;;5031403;28;20208;-61
2023/05/31 04:47:45;;;;;;;0.60;0.50;;;15.00;99.90;;;;;;5036733;28;20216;-61
2023/05/31 04:50:13;;;;;;;1.17;1.08;;;15.00;99.90;;;;;;5031348;28;20267;-62
2023/05/31 04:52:43;;;;;;;0.82;0.65;;;15.00;99.90;;;;;;5039060;28;20200;-62
2023/05/31 04:55:11;;;;;;;0.80;0.60;;;15.00;99.90;;;;;;5030437;28;20761;-61
2023/05/31 04:57:39;;;;;;;0.80;0.70;;;15.00;99.90;;;;;;5031143;28;20293;-62
2023/05/31 05:00:09;;;;;;;0.60;0.40;;;15.00;99.90;;;;;;5042922;28;20585;-61
2023/05/31 05:02:37;;;;;;;0.70;0.60;;;15.10;99.90;;;;;;5032503;28;20615;-62
2023/05/31 05:05:06;;;;;;;0.73;0.52;;;15.10;99.90;;;;;;5030105;28;20203;-61
2023/05/31 05:07:35;;;;;;;0.70;0.70;;;15.20;99.90;;;;;;5028840;28;20682;-61
2023/05/31 05:10:05;;;;;;;4.05;0.93;;;15.30;99.90;;;;;;5029973;28;20219;-62
2023/05/31 05:12:33;;;;;;;0.80;0.57;;;15.40;99.90;;;;;;5035432;28;20329;-62
2023/05/31 05:15:01;;;;;;;0.60;0.50;;;15.50;99.90;;;;;;5036105;28;20239;-62
2023/05/31 05:17:28;;;;;;;0.90;0.57;;;15.50;99.90;;;;;;5035012;28;20220;-61
2023/05/31 05:19:56;;;;;;;1.00;0.60;;;15.70;99.90;;;;;;5028013;28;20461;-62
2023/05/31 05:22:24;;;;;;;5.80;1.65;;;15.80;99.90;;;;;;5037832;28;20200;-62
2023/05/31 05:24:52;;;;;;;1.10;0.73;;;15.90;99.90;;;;;;5032906;28;20256;-62
2023/05/31 05:27:22;;;;;;;0.60;0.57;;;16.00;99.90;;;;;;5039477;28;20197;-62
2023/05/31 05:29:50;;;;;;;0.80;0.70;;;16.10;99.90;;;;;;5032741;28;20225;-62
2023/05/31 05:32:18;;;;;;;0.90;0.60;;;16.20;99.90;;;;;;5032151;28;20208;-62
2023/05/31 05:34:46;;;;;;;0.60;0.40;;;16.30;99.90;;;;;;5029734;28;20597;-61
2023/05/31 05:37:14;;;;;;;0.90;0.70;;;16.40;99.90;;;;;;5035303;28;20270;-61
2023/05/31 05:39:42;;;;;;;1.05;0.50;;;16.50;99.90;;;;;;5031226;28;20232;-61
2023/05/31 05:42:11;;;;;;;0.73;0.60;;;16.60;99.90;;;;;;5032653;28;20280;-62
2023/05/31 05:44:41;;;;;;;0.70;0.50;;;16.60;99.90;;;;;;5029063;28;20204;-62
2023/05/31 05:47:09;;;;;;;0.70;0.45;;;16.70;99.90;;;;;;5030646;28;20208;-62
2023/05/31 05:49:37;;;;;;;0.63;0.63;;;16.80;99.90;;;;;;5034247;28;20286;-62
2023/05/31 05:52:05;;;;;;;0.80;0.80;;;16.80;99.90;;;;;;5044171;28;20216;-62
2023/05/31 05:54:33;;;;;;;1.70;0.50;;;16.90;99.90;;;;;;5031469;28;20660;-61
2023/05/31 05:57:03;;;;;;;0.60;0.50;;;17.00;99.90;;;;;;5031242;28;20243;-62
2023/05/31 05:59:31;;;;;;;0.60;0.40;;;17.10;99.90;;;;;;5030317;28;20227;-62
2023/05/31 06:02:00;;;;;;;0.60;0.60;;;17.20;99.90;;;;;;5032607;28;20587;-61
2023/05/31 06:04:28;;;;;;;0.60;0.60;;;17.30;99.90;;;;;;5034725;28;20234;-62
2023/05/31 06:06:56;;;;;;;0.60;0.45;;;17.40;99.90;;;;;;5037125;28;20687;-62
2023/05/31 06:09:24;;;;;;;0.80;0.63;;;17.50;99.90;;;;;;5039313;28;20273;-62
2023/05/31 06:11:52;;;;;;;0.65;0.47;;;17.50;99.90;;;;;;5034778;28;20208;-62
2023/05/31 06:14:20;;;;;;;0.60;0.50;;;17.60;99.90;;;;;;5031780;28;20207;-62
2023/05/31 06:16:47;;;;;;;0.80;0.50;;;17.70;99.90;;;;;;5033029;28;20636;-62
2023/05/31 06:19:17;;;;;;;0.65;0.57;;;17.80;99.90;;;;;;5029097;28;20239;-62
2023/05/31 06:21:45;;;;;;;0.60;0.50;;;17.80;99.90;;;;;;5030504;28;20208;-61
2023/05/31 06:24:13;;;;;;;0.60;0.40;;;17.80;99.90;;;;;;5031509;28;20291;-62
2023/05/31 06:26:41;;;;;;;0.63;0.50;;;17.90;99.90;;;;;;5033125;28;20241;-62
2023/05/31 06:29:10;;;;;;;0.70;0.70;;;18.00;99.90;;;;;;5030769;28;20232;-62
2023/05/31 06:31:38;;;;;;;1.98;0.50;;;18.10;99.90;;;;;;5043767;28;20204;-62
2023/05/31 06:34:06;;;;;;;1.83;1.73;;;18.20;99.90;;;;;;5050336;28;20211;-62
2023/05/31 06:36:36;;;;;;;0.80;0.60;;;18.30;99.90;;;;;;5050789;28;20223;-63
2023/05/31 06:39:04;;;;;;;0.88;0.77;;;18.40;99.90;;;;;;5050690;28;20235;-62
2023/05/31 06:41:34;;;;;;;0.60;0.40;;;18.40;99.90;;;;;;5050731;28;20208;-62
2023/05/31 06:44:02;;;;;;;0.90;0.60;;;18.30;99.90;;;;;;5050275;28;20265;-62
2023/05/31 06:46:30;;;;;;;0.70;0.60;;;18.40;99.90;;;;;;5050726;28;20201;-62
2023/05/31 06:48:58;;;;;;;10.70;6.60;;;18.50;99.90;;;;;;5046189;28;20244;-62
2023/05/31 06:51:41;;;;;;;15.13;12.52;;;18.50;99.90;;;;;;5030757;28;20209;-62
2023/05/31 06:54:09;;;;;;;0.85;0.65;;;18.70;99.90;;;;;;5049160;28;20217;-62
2023/05/31 06:56:36;;;;;;;0.80;0.60;;;18.80;99.90;;;;;;5050652;28;20225;-62
2023/05/31 06:59:04;;;;;;;0.93;0.63;;;18.90;99.90;;;;;;5050553;28;20231;-62
2023/05/31 07:01:32;;;;;;;0.60;0.60;;;18.80;99.90;;;;;;5050626;28;20716;-62
2023/05/31 07:04:00;;;;;;;0.80;0.63;;;18.80;99.90;;;;;;5050016;28;20211;-62
2023/05/31 07:06:29;;;;;;;0.70;0.60;;;18.80;99.90;;;;;;5050270;28;20204;-62
2023/05/31 07:08:58;;;;;;;0.60;0.52;;;18.90;99.90;;;;;;5050125;28;20642;-62
2023/05/31 07:11:26;;;;;;;0.60;0.55;;;19.00;99.90;;;;;;5050476;28;20200;-63
2023/05/31 07:13:59;;;;;;;0.60;0.40;;;19.00;99.90;;;;;;5050297;28;20215;-62
2023/05/31 07:16:27;;;;;;;0.60;0.40;;;19.10;99.90;;;;;;5050535;28;20236;-62
2023/05/31 07:18:56;;;;;;;0.60;0.40;;;19.10;99.90;;;;;;5045977;28;20246;-62
2023/05/31 07:21:24;;;;;;;0.60;0.50;;;19.30;99.90;;;;;;5030361;28;20573;-62
2023/05/31 07:23:52;;;;;;;0.57;0.38;;;19.30;99.90;;;;;;5046471;28;20701;-63
2023/05/31 07:26:22;;;;;;;0.93;0.85;;;19.50;99.90;;;;;;5042558;28;20283;-62
2023/05/31 07:28:52;;;;;;;0.65;0.60;;;19.70;99.90;;;;;;5050350;28;20221;-62
2023/05/31 07:31:21;;;;;;;0.50;0.40;;;19.50;99.90;;;;;;5050355;28;20214;-62
2023/05/31 07:33:49;;;;;;;0.60;0.50;;;19.60;99.90;;;;;;5049875;28;20289;-62
2023/05/31 07:36:17;;;;;;;0.65;0.50;;;19.70;99.90;;;;;;5050086;28;20220;-61
2023/05/31 07:38:46;;;;;;;0.60;0.50;;;19.80;99.90;;;;;;5050237;28;20641;-62
2023/05/31 07:41:13;;;;;;;0.60;0.40;;;20.00;99.90;;;;;;5050064;28;20207;-62
2023/05/31 07:43:44;;;;;;;2.17;0.60;;;20.10;99.90;;;;;;5053507;28;20208;-62
2023/05/31 07:46:12;;;;;;;0.70;0.50;;;20.10;99.90;;;;;;5053501;28;20214;-62
2023/05/31 07:48:40;;;;;;;0.80;0.70;;;20.30;99.90;;;;;;5051901;28;20220;-62
2023/05/31 07:51:08;;;;;;;0.60;0.50;;;20.40;99.00;;;;;;5033536;28;20228;-62
2023/05/31 07:53:36;;;;;;;0.60;0.40;;;20.50;99.60;;;;;;5047797;28;20215;-62
2023/05/31 07:56:04;;;;;;;0.60;0.40;;;20.70;99.90;;;;;;5053230;28;20224;-62
2023/05/31 07:58:32;;;;;;;0.73;0.50;;;20.90;98.80;;;;;;5053597;28;20270;-62
2023/05/31 08:01:01;;;;;;;0.60;0.43;;;21.10;99.00;;;;;;5053193;28;20240;-62
2023/05/31 08:03:31;;;;;;;0.70;0.50;;;21.20;99.90;;;;;;5053628;28;20561;-62
2023/05/31 08:05:59;;;;;;;0.70;0.50;;;21.30;97.50;;;;;;5053088;28;20208;-62
2023/05/31 08:08:27;;;;;;;0.60;0.40;;;21.40;97.80;;;;;;5053485;28;20290;-62
2023/05/31 08:10:55;;;;;;;0.60;0.40;;;21.60;97.20;;;;;;5053162;28;20220;-62
2023/05/31 08:13:24;;;;;;;0.60;0.40;;;21.60;96.50;;;;;;5053324;28;20535;-62
2023/05/31 08:15:52;;;;;;;1.02;0.93;;;21.70;96.80;;;;;;5052918;28;20593;-62
2023/05/31 08:18:21;;;;;;;0.60;0.50;;;21.80;97.00;;;;;;5052994;28;20236;-62
2023/05/31 08:20:49;;;;;;;0.68;0.60;;;21.80;97.20;;;;;;5033678;28;20236;-62
2023/05/31 08:23:18;;;;;;;0.82;0.40;;;21.90;96.70;;;;;;5044341;28;20205;-64
2023/05/31 08:25:46;;;;;;;0.60;0.50;;;21.80;94.80;;;;;;5052648;28;20209;-62
2023/05/31 08:28:14;;;;;;;0.60;0.40;;;21.70;95.80;;;;;;5052916;28;20228;-63
2023/05/31 08:30:42;;;;;;;0.60;0.40;;;21.90;95.70;;;;;;5053022;28;20255;-62
2023/05/31 08:33:32;;;;;;;0.70;0.60;;;22.10;95.90;;;;;;5052972;28;20285;-62
2023/05/31 08:36:01;;;;;;;1.75;0.70;;;22.30;96.10;;;;;;5052245;28;20225;-62
2023/05/31 08:38:29;;;;;;;1.48;0.80;;;22.40;95.30;;;;;;5052916;28;20703;-62
2023/05/31 08:41:01;;;;;;;0.60;0.43;;;22.40;94.70;;;;;;5052497;28;20212;-64
2023/05/31 08:43:30;;;;;;;0.50;0.30;;;22.20;93.90;;;;;;5052628;28;20208;-62
2023/05/31 08:45:58;;;;;;;0.60;0.45;;;22.30;94.40;;;;;;5052501;28;20663;-62
2023/05/31 08:48:34;;;;;;;0.60;0.40;;;22.60;95.00;;;;;;5053182;28;20827;-62
2023/05/31 08:51:05;;;;;;;1.35;0.65;;;22.90;94.60;;;;;;5029672;28;20209;-62
2023/05/31 08:53:35;;;;;;;0.60;0.40;;;23.10;94.10;;;;;;5044819;28;20213;-62
2023/05/31 08:56:05;;;;;;;0.60;0.40;;;23.10;94.70;;;;;;5052582;28;20206;-62
2023/05/31 08:58:35;;;;;;;0.60;0.40;;;23.20;93.70;;;;;;5052480;28;20229;-62
2023/05/31 09:01:03;;;;;;;2.65;1.35;;;23.50;94.20;;;;;;5052191;28;20200;-63
2023/05/31 09:03:33;;;;;;;0.60;0.50;;;23.40;93.30;;;;;;5052281;28;20209;-63
2023/05/31 09:06:01;;;;;;;1.17;0.68;;;23.30;93.10;;;;;;5052196;28;20210;-62
2023/05/31 09:08:33;;;;;;;0.80;0.52;;;23.40;93.70;;;;;;5052423;28;20700;-63
2023/05/31 09:11:02;;;;;;;0.77;0.60;;;23.50;92.90;;;;;;5051993;28;20668;-62
2023/05/31 09:13:30;;;;;;;0.70;0.50;;;23.40;92.10;;;;;;5052117;28;20661;-62
2023/05/31 09:15:58;;;;;;;1.02;0.93;;;23.30;92.20;;;;;;5051802;28;20204;-63
2023/05/31 09:18:30;;;;;;;0.80;0.50;;;23.40;91.90;;;;;;5051758;28;20583;-62
2023/05/31 09:21:08;;;;;;;0.60;0.40;;;23.50;92.60;;;;;;5027706;28;20681;-62
2023/05/31 09:23:36;;;;;;;0.70;0.50;;;23.70;92.10;;;;;;5029007;28;20217;-62
2023/05/31 09:26:08;;;;;;;0.60;0.60;;;23.80;92.40;;;;;;5031602;28;20676;-62
2023/05/31 09:28:36;;;;;;;0.60;0.40;;;23.90;91.10;;;;;;5031849;28;20597;-63
2023/05/31 09:31:05;;;;;;;0.85;0.85;;;24.10;91.10;;;;;;5031370;28;20218;-62
2023/05/31 09:33:41;;;;;;;2.08;0.52;;;24.40;90.70;;;;;;5031731;28;20207;-63
2023/05/31 09:36:12;;;;;;;0.60;0.40;;;24.70;91.10;;;;;;5031590;28;20211;-62
2023/05/31 09:38:41;;;;;;;0.60;0.45;;;24.70;90.20;;;;;;5031750;28;20222;-63
2023/05/31 09:41:13;;;;;;;0.60;0.40;;;24.60;89.20;;;;;;5031246;28;20256;-62
2023/05/31 09:43:41;;;;;;;0.60;0.50;;;24.60;89.30;;;;;;5031529;28;20207;-63
2023/05/31 09:46:14;;;;;;;0.65;0.50;;;24.60;84.90;;;;;;5031270;28;20212;-63
2023/05/31 09:48:42;;;;;;;0.60;0.40;;;24.70;88.10;;;;;;5035007;28;20301;-62
2023/05/31 09:51:13;;;;;;;0.70;0.50;;;24.80;87.90;;;;;;5031215;28;20234;-63
2023/05/31 09:53:43;;;;;;;0.70;0.60;;;25.10;87.40;;;;;;5045521;28;20213;-62
2023/05/31 09:56:12;;;;;;;0.60;0.47;;;25.00;84.80;;;;;;5051205;28;20210;-62
2023/05/31 09:58:40;;;;;;;0.60;0.40;;;25.10;83.90;;;;;;5051193;28;20570;-63
2023/05/31 10:01:09;;;;;;;0.60;0.50;;;25.30;83.40;;;;;;5051261;28;20214;-63
2023/05/31 10:03:39;;;;;;;0.68;0.55;;;25.30;82.50;;;;;;5051029;28;20582;-63
2023/05/31 10:06:08;;;;;;;0.60;0.40;;;25.50;82.90;;;;;;5050780;28;20260;-63
2023/05/31 10:08:38;;;;;;;0.80;0.43;;;25.40;82.30;;;;;;5051077;28;20223;-62
2023/05/31 10:11:06;;;;;;;3.65;0.63;;;25.20;83.60;;;;;;5051186;28;20579;-63
2023/05/31 10:13:34;;;;;;;0.80;0.40;;;25.30;84.20;;;;;;5051104;28;20213;-62
2023/05/31 10:16:06;;;;;;;0.60;0.40;;;25.50;80.60;;;;;;5050669;28;20233;-63
2023/05/31 10:18:37;;;;;;;0.60;0.40;;;25.50;81.40;;;;;;5050417;28;20245;-63
2023/05/31 10:21:10;;;;;;;0.93;0.80;;;25.50;82.40;;;;;;5031054;28;20617;-63
2023/05/31 10:23:44;;;;;;;0.60;0.50;;;25.10;79.60;;;;;;5044216;28;20210;-62
2023/05/31 10:26:17;;;;;;;0.60;0.40;;;25.10;82.40;;;;;;5050624;28;20583;-62
2023/05/31 10:28:49;;;;;;;0.95;0.77;;;25.50;81.70;;;;;;5051014;28;20230;-63
2023/05/31 10:31:21;;;;;;;0.50;0.30;;;25.60;77.90;;;;;;5050596;28;20210;-63
2023/05/31 10:33:54;;;;;;;0.70;0.43;;;25.70;78.30;;;;;;5050779;28;20217;-63
2023/05/31 10:36:22;;;;;;;0.60;0.40;;;25.70;79.80;;;;;;5050732;28;20233;-62
2023/05/31 10:39:00;;;;;;;0.68;0.60;;;26.10;82.30;;;;;;5050687;28;20230;-63
2023/05/31 10:41:36;;;;;;;0.90;0.60;;;26.20;78.80;;;;;;5034367;28;20252;-62
2023/05/31 10:44:12;;;;;;;0.60;0.40;;;26.30;80.20;;;;;;5050202;28;20218;-62
2023/05/31 10:46:42;;;;;;;0.65;0.65;;;26.40;79.40;;;;;;5050803;28;20211;-63
2023/05/31 10:49:11;;;;;;;0.80;0.65;;;26.30;78.90;;;;;;5044427;28;20228;-63
2023/05/31 10:51:40;;;;;;;0.70;0.60;;;26.50;78.50;;;;;;5030822;28;20682;-63
2023/05/31 10:54:09;;;;;;;1.05;0.63;;;26.60;78.40;;;;;;5047377;28;20204;-64
2023/05/31 10:56:38;;;;;;;0.60;0.45;;;26.70;77.20;;;;;;5050663;28;20212;-62
2023/05/31 10:59:10;;;;;;;0.70;0.52;;;26.70;79.40;;;;;;5050283;28;20238;-63
2023/05/31 11:01:39;;;;;;;0.70;0.52;;;26.50;75.80;;;;;;5050543;28;20282;-63
2023/05/31 11:04:20;;;;;;;0.60;0.50;;;26.50;77.70;;;;;;5050500;28;20573;-63
2023/05/31 11:06:52;;;;;;;0.90;0.55;;;26.80;77.50;;;;;;5050530;28;20294;-63
2023/05/31 11:09:23;;;;;;;1.33;1.08;;;27.00;76.90;;;;;;5050394;28;20733;-63
2023/05/31 11:11:51;;;;;;;0.50;0.30;;;26.80;75.60;;;;;;5050272;28;20206;-63
2023/05/31 11:14:29;;;;;;;0.60;0.60;;;27.00;76.80;;;;;;5050001;28;20601;-63
2023/05/31 11:17:16;;;;;;;1.30;0.55;;;26.90;77.50;;;;;;5051295;28;20253;-63
2023/05/31 11:19:52;;;;;;;0.60;0.47;;;27.20;78.90;;;;;;5031176;28;20246;-63
2023/05/31 11:22:26;;;;;;;0.73;0.60;;;27.20;76.90;;;;;;5036225;28;20214;-63
2023/05/31 11:24:57;;;;;;;0.80;0.47;;;27.40;78.00;;;;;;5054381;28;20208;-63
2023/05/31 11:27:36;;;;;;;0.70;0.50;;;27.60;75.50;;;;;;5054136;28;20223;-63
2023/05/31 11:30:08;;;;;;;0.60;0.30;;;27.60;76.20;;;;;;5053992;28;20241;-63
2023/05/31 11:32:58;;;;;;;0.70;0.50;;;27.30;77.10;;;;;;5039307;28;20242;-63
2023/05/31 11:35:26;;;;;;;0.70;0.50;;;27.20;74.60;;;;;;5053834;28;20208;-63
2023/05/31 11:38:07;;;;;;;0.60;0.40;;;27.50;75.80;;;;;;5054017;28;20224;-63
2023/05/31 11:40:37;;;;;;;0.60;0.40;;;27.60;74.50;;;;;;5038921;28;20214;-63
2023/05/31 11:43:07;;;;;;;1.00;0.68;;;27.40;74.60;;;;;;5054033;28;20622;-63
2023/05/31 11:45:44;;;;;;;0.60;0.40;;;27.10;75.00;;;;;;5038825;28;20204;-63
2023/05/31 11:48:31;;;;;;;0.70;0.50;;;27.30;75.40;;;;;;5053746;28;20251;-63
2023/05/31 11:51:04;;;;;;;0.60;0.50;;;27.10;74.10;;;;;;5029941;28;20262;-63
2023/05/31 11:53:32;;;;;;;0.70;0.60;;;27.30;76.00;;;;;;5045316;28;20210;-62
2023/05/31 11:56:01;;;;;;;0.60;0.50;;;27.50;76.20;;;;;;5053606;28;20670;-63
2023/05/31 11:58:29;;;;;;;0.60;0.40;;;27.80;76.40;;;;;;5053332;28;20219;-63
2023/05/31 12:01:01;;;;;;;0.70;0.40;;;28.00;74.30;;;;;;5053507;28;20210;-63
2023/05/31 12:03:31;;;;;;;0.95;0.43;;;28.30;75.70;;;;;;5053520;28;20207;-63
2023/05/31 12:06:04;;;;;;;1.30;0.68;;;28.40;74.90;;;;;;5053536;28;20689;-63
2023/05/31 12:08:32;;;;;;;0.60;0.40;;;28.20;70.60;;;;;;5037090;28;20224;-63
2023/05/31 12:11:05;;;;;;;0.60;0.40;;;28.30;71.00;;;;;;5053470;28;20549;-64
2023/05/31 12:13:34;;;;;;;0.60;0.30;;;28.50;69.70;;;;;;5037202;28;20208;-63
2023/05/31 12:16:05;;;;;;;0.68;0.65;;;28.60;70.40;;;;;;5053357;28;20287;-63
2023/05/31 12:18:33;;;;;;;0.98;0.60;;;29.00;72.70;;;;;;5052103;28;20231;-63
2023/05/31 12:21:06;;;;;;;0.60;0.40;;;29.20;72.30;;;;;;5033139;28;20215;-63
2023/05/31 12:23:52;;;;;;;0.70;0.60;;;28.90;73.50;;;;;;5045089;28;20207;-63
2023/05/31 12:26:22;;;;;;;0.68;0.40;;;29.00;74.40;;;;;;5053100;28;20204;-63
2023/05/31 12:28:51;;;;;;;1.02;0.73;;;28.80;72.50;;;;;;5053117;28;20310;-63
2023/05/31 12:31:23;;;;;;;0.90;0.50;;;28.50;69.60;;;;;;5052839;28;20231;-63
2023/05/31 12:34:06;;;;;;;0.70;0.50;;;28.20;69.90;;;;;;5052914;28;20215;-63
2023/05/31 12:36:39;;;;;;;2.30;0.50;;;28.20;70.70;;;;;;5028658;28;20268;-63
2023/05/31 12:39:12;;;;;;;0.60;0.40;;;28.10;70.90;;;;;;5052846;28;20228;-63
2023/05/31 12:41:44;;;;;;;0.73;0.40;;;28.30;71.90;;;;;;5038015;28;20667;-63
2023/05/31 12:44:15;;;;;;;0.60;0.40;;;28.60;72.50;;;;;;5052405;28;20203;-63
2023/05/31 12:46:45;;;;;;;0.82;0.70;;;28.70;73.90;;;;;;5052907;28;20748;-63
2023/05/31 12:49:15;;;;;;;1.05;0.55;;;28.80;71.30;;;;;;5046105;28;20225;-64
2023/05/31 12:51:44;;;;;;;1.25;0.90;;;29.40;71.70;;;;;;5032704;28;20216;-63
2023/05/31 12:54:12;;;;;;;0.70;0.70;;;29.10;69.10;;;;;;5049059;28;20666;-63
2023/05/31 12:56:40;;;;;;;0.60;0.40;;;28.70;69.40;;;;;;5050105;28;20204;-63
2023/05/31 12:59:10;;;;;;;0.70;0.40;;;28.80;70.30;;;;;;5043480;28;20227;-63